Time;durP1;ratioP1;P1;durP2;ratioP2;P2;SDS_P1;SDS_P2;PMS_P1;PMS_P2;Temp;Humidity;BMP_temperature;BMP_pressure;BME280_temperature;BME280_humidity;BME280_pressure;Samples;Min_cycle;Max_cycle;Signal;HPM_P1;HPM_P2
2022/01/02 00:00:44;;;;;;;;;;;;;;;;;;8298599;28;19930;-79
2022/01/02 00:04:50;;;;;;;;;;;;;;;;;;8298397;28;20397;-79
2022/01/02 00:09:02;;;;;;;;;;;;;;;;;;8298299;28;19926;-79
2022/01/02 00:13:06;;;;;;;;;;;;;;;;;;8298801;28;19930;-79
2022/01/02 00:17:09;;;;;;;;;;;;;;;;;;8302098;28;19979;-79
2022/01/02 00:21:12;;;;;;;;;;;;;;;;;;8304755;28;19926;-79
2022/01/02 00:25:26;;;;;;;;;;;;;;;;;;8304436;28;19926;-79
2022/01/02 00:29:28;;;;;;;;;;;;;;;;;;8304591;28;19929;-79
2022/01/02 00:33:31;;;;;;;;;;;;;;;;;;8304422;28;20266;-78
2022/01/02 00:37:34;;;;;;;;;;;;;;;;;;8304162;28;19979;-80
2022/01/02 00:41:42;;;;;;;;;;;;;;;;;;8304117;28;20028;-79
2022/01/02 00:45:46;;;;;;;;;;;;;;;;;;8304084;28;20507;-80
2022/01/02 00:49:57;;;;;;;;;;;;;;;;;;8303850;28;20446;-79
2022/01/02 00:54:01;;;;;;;;;;;;;;;;;;8303503;28;19925;-80
2022/01/02 00:58:06;;;;;;;;;;;;;;;;;;8303529;28;19968;-79
2022/01/02 01:02:11;;;;;;;;;;;;;;;;;;8303444;28;20016;-80
2022/01/02 01:06:15;;;;;;;;;;;;;;;;;;8307024;28;20287;-79
2022/01/02 01:10:17;;;;;;;;;;;;;;;;;;8331289;28;19933;-81
2022/01/02 01:14:21;;;;;;;;;;;;;;;;;;8303108;28;19925;-80
2022/01/02 01:18:23;;;;;;;;;;;;;;;;;;8302953;28;19925;-79
2022/01/02 01:22:27;;;;;;;;;;;;;;;;;;8303231;28;19948;-79
2022/01/02 01:26:29;;;;;;;;;;;;;;;;;;8302679;28;20392;-80
2022/01/02 01:30:33;;;;;;;;;;;;;;;;;;8302539;28;19936;-80
2022/01/02 01:34:36;;;;;;;;;;;;;;;;;;8329867;28;19932;-79
2022/01/02 01:38:38;;;;;;;;;;;;;;;;;;8335444;28;19932;-80
2022/01/02 01:42:43;;;;;;;;;;;;;;;;;;8334945;28;19925;-80
2022/01/02 01:46:48;;;;;;;;;;;;;;;;;;8335810;28;20372;-80
2022/01/02 01:50:50;;;;;;;;;;;;;;;;;;8334618;28;19926;-78
2022/01/02 01:54:52;;;;;;;;;;;;;;;;;;8334274;28;19928;-79
2022/01/02 01:58:54;;;;;;;;;;;;;;;;;;8334334;28;19936;-80
2022/01/02 02:02:58;;;;;;;;;;;;;;;;;;8334422;28;20258;-79
2022/01/02 02:07:01;;;;;;;;;;;;;;;;;;8307626;28;19931;-79
2022/01/02 02:11:03;;;;;;;;;;;;;;;;;;8305878;28;19932;-79
2022/01/02 02:15:06;;;;;;;;;;;;;;;;;;8301644;28;20326;-79
2022/01/02 02:19:09;;;;;;;;;;;;;;;;;;8301485;28;19933;-80
2022/01/02 02:23:15;;;;;;;;;;;;;;;;;;8301064;28;20293;-79
2022/01/02 02:27:22;;;;;;;;;;;;;;;;;;8301501;28;19940;-79
2022/01/02 02:31:24;;;;;;;;;;;;;;;;;;8324025;28;19925;-78
2022/01/02 02:35:27;;;;;;;;;;;;;;;;;;8333024;28;19926;-79
2022/01/02 02:39:33;;;;;;;;;;;;;;;;;;8331632;28;19925;-82
2022/01/02 02:43:43;;;;;;;;;;;;;;;;;;8326374;28;19929;-82
2022/01/02 02:52:11;;;;;;;;;;;;;;;;;;8323563;28;20388;-78
2022/01/02 02:56:19;;;;;;;;;;;;;;;;;;8331488;28;19933;-80
2022/01/02 03:00:21;;;;;;;;;;;;;;;;;;8333295;28;19979;-79
2022/01/02 03:04:24;;;;;;;;;;;;;;;;;;8321298;28;20439;-80
2022/01/02 03:08:27;;;;;;;;;;;;;;;;;;8345504;28;19925;-80
2022/01/02 03:12:30;;;;;;;;;;;;;;;;;;8329748;28;20440;-81
2022/01/02 03:16:33;;;;;;;;;;;;;;;;;;8326888;28;19936;-80
2022/01/02 03:20:35;;;;;;;;;;;;;;;;;;8329266;28;19963;-80
2022/01/02 03:24:37;;;;;;;;;;;;;;;;;;8327030;28;19932;-80
2022/01/02 03:28:41;;;;;;;;;;;;;;;;;;8325845;28;19932;-79
2022/01/02 03:32:43;;;;;;;;;;;;;;;;;;8329145;28;19933;-79
2022/01/02 03:36:46;;;;;;;;;;;;;;;;;;8331894;28;20008;-79
2022/01/02 03:40:48;;;;;;;;;;;;;;;;;;8331940;28;20393;-79
2022/01/02 03:44:52;;;;;;;;;;;;;;;;;;8331451;28;20321;-80
2022/01/02 03:48:54;;;;;;;;;;;;;;;;;;8331594;28;19932;-79
2022/01/02 03:52:56;;;;;;;;;;;;;;;;;;8330979;28;19987;-79
2022/01/02 03:56:58;;;;;;;;;;;;;;;;;;8331597;28;19925;-79
2022/01/02 04:01:02;;;;;;;;;;;;;;;;;;8331143;28;19979;-79
2022/01/02 04:05:05;;;;;;;;;;;;;;;;;;8331051;28;19943;-80
2022/01/02 04:09:07;;;;;;;;;;;;;;;;;;8330921;28;19970;-79
2022/01/02 04:13:10;;;;;;;;;;;;;;;;;;8330881;28;19932;-78
2022/01/02 04:17:13;;;;;;;;;;;;;;;;;;8330848;28;19986;-79
2022/01/02 04:21:15;;;;;;;;;;;;;;;;;;8331302;28;19925;-80
2022/01/02 04:25:18;;;;;;;;;;;;;;;;;;8331151;28;19925;-79
2022/01/02 04:29:20;;;;;;;;;;;;;;;;;;8331119;28;19925;-79
2022/01/02 04:33:23;;;;;;;;;;;;;;;;;;8331156;28;19997;-80
2022/01/02 04:37:26;;;;;;;;;;;;;;;;;;8330444;28;19925;-79
2022/01/02 04:41:28;;;;;;;;;;;;;;;;;;8330462;28;19926;-79
2022/01/02 04:45:30;;;;;;;;;;;;;;;;;;8330427;28;19925;-78
2022/01/02 04:49:34;;;;;;;;;;;;;;;;;;8330888;28;19979;-80
2022/01/02 04:53:45;;;;;;;;;;;;;;;;;;8330075;28;19931;-79
2022/01/02 04:57:47;;;;;;;;;;;;;;;;;;8330676;28;20391;-79
2022/01/02 05:01:50;;;;;;;;;;;;;;;;;;8331909;28;19925;-79
2022/01/02 05:05:53;;;;;;;;;;;;;;;;;;8336551;28;19929;-79
2022/01/02 05:09:56;;;;;;;;;;;;;;;;;;8336009;28;19932;-79
2022/01/02 05:13:58;;;;;;;;;;;;;;;;;;8335890;28;20289;-79
2022/01/02 05:18:00;;;;;;;;;;;;;;;;;;8336120;28;19979;-78
2022/01/02 05:22:04;;;;;;;;;;;;;;;;;;8335630;28;20428;-79
2022/01/02 05:26:06;;;;;;;;;;;;;;;;;;8335499;28;19978;-80
2022/01/02 05:30:09;;;;;;;;;;;;;;;;;;8335432;28;20008;-79
2022/01/02 05:34:12;;;;;;;;;;;;;;;;;;8335681;28;20320;-80
2022/01/02 05:38:19;;;;;;;;;;;;;;;;;;8331817;28;20000;-80
2022/01/02 05:42:21;;;;;;;;;;;;;;;;;;8335116;28;19932;-79
2022/01/02 05:46:23;;;;;;;;;;;;;;;;;;8334926;28;20028;-79
2022/01/02 05:50:26;;;;;;;;;;;;;;;;;;8334678;28;19925;-80
2022/01/02 05:54:32;;;;;;;;;;;;;;;;;;8334464;28;19925;-79
2022/01/02 05:58:35;;;;;;;;;;;;;;;;;;8334827;28;19929;-81
2022/01/02 06:02:37;;;;;;;;;;;;;;;;;;8334369;28;19932;-80
2022/01/02 06:06:39;;;;;;;;;;;;;;;;;;8334222;28;19929;-78
2022/01/02 06:10:43;;;;;;;;;;;;;;;;;;8334647;28;20020;-79
2022/01/02 06:14:45;;;;;;;;;;;;;;;;;;8334506;28;20357;-80
2022/01/02 06:18:47;;;;;;;;;;;;;;;;;;8334252;28;19948;-79
2022/01/02 06:22:50;;;;;;;;;;;;;;;;;;8333827;28;19979;-79
2022/01/02 06:26:54;;;;;;;;;;;;;;;;;;8333618;28;19926;-79
2022/01/02 06:30:56;;;;;;;;;;;;;;;;;;8333987;28;19983;-80
2022/01/02 06:34:58;;;;;;;;;;;;;;;;;;8333398;28;19925;-80
2022/01/02 06:39:00;;;;;;;;;;;;;;;;;;8333677;28;20335;-79
2022/01/02 06:43:04;;;;;;;;;;;;;;;;;;8333125;28;19931;-79
2022/01/02 06:47:07;;;;;;;;;;;;;;;;;;8333452;28;19925;-80
2022/01/02 06:51:09;;;;;;;;;;;;;;;;;;8332853;28;19972;-80
2022/01/02 06:55:11;;;;;;;;;;;;;;;;;;8332752;28;19948;-79
2022/01/02 06:59:15;;;;;;;;;;;;;;;;;;8332572;28;19948;-80
2022/01/02 07:03:17;;;;;;;;;;;;;;;;;;8294523;28;19980;-79
2022/01/02 07:07:19;;;;;;;;;;;;;;;;;;8283334;28;19932;-80
2022/01/02 07:11:22;;;;;;;;;;;;;;;;;;8295129;28;19960;-79
2022/01/02 07:15:25;;;;;;;;;;;;;;;;;;8267517;28;20358;-79
2022/01/02 07:19:28;;;;;;;;;;;;;;;;;;8280566;28;19925;-80
2022/01/02 07:23:30;;;;;;;;;;;;;;;;;;8299852;28;19933;-80
2022/01/02 07:27:32;;;;;;;;;;;;;;;;;;8331499;28;19925;-79
2022/01/02 07:31:36;;;;;;;;;;;;;;;;;;8299717;28;19989;-79
2022/01/02 07:35:39;;;;;;;;;;;;;;;;;;8298922;28;20015;-78
2022/01/02 07:39:41;;;;;;;;;;;;;;;;;;8299270;28;19947;-80
2022/01/02 07:43:43;;;;;;;;;;;;;;;;;;8303099;28;19925;-81
2022/01/02 07:47:47;;;;;;;;;;;;;;;;;;8296671;28;20381;-80
2022/01/02 07:51:49;;;;;;;;;;;;;;;;;;8277545;28;20389;-79
2022/01/02 07:55:51;;;;;;;;;;;;;;;;;;8289782;28;19925;-80
2022/01/02 07:59:53;;;;;;;;;;;;;;;;;;8298474;28;19925;-80
2022/01/02 08:03:57;;;;;;;;;;;;;;;;;;8298476;28;19925;-80
2022/01/02 08:08:00;;;;;;;;;;;;;;;;;;8298385;28;19964;-79
2022/01/02 08:12:02;;;;;;;;;;;;;;;;;;8298390;28;19933;-80
2022/01/02 08:16:04;;;;;;;;;;;;;;;;;;8298321;28;20068;-80
2022/01/02 08:20:09;;;;;;;;;;;;;;;;;;8311266;28;20405;-80
2022/01/02 08:24:11;;;;;;;;;;;;;;;;;;8298227;28;20016;-81
2022/01/02 08:28:14;;;;;;;;;;;;;;;;;;8306703;28;20014;-81
2022/01/02 08:32:17;;;;;;;;;;;;;;;;;;8296151;28;20437;-81
2022/01/02 08:36:21;;;;;;;;;;;;;;;;;;8297095;28;20448;-80
2022/01/02 08:40:23;;;;;;;;;;;;;;;;;;8302158;28;19925;-81
2022/01/02 08:44:25;;;;;;;;;;;;;;;;;;8303118;28;19930;-81
2022/01/02 08:48:28;;;;;;;;;;;;;;;;;;8304006;28;19925;-80
